sensor_id;sensor_type;location;lat;lon;timestamp;pressure;altitude;pressure_sealevel;temperature
11240;BMP180;5677;48.488;13.436;2022-08-19T00:01:59;97130.00;;;24.30
11240;BMP180;5677;48.488;13.436;2022-08-19T00:04:31;97125.00;;;24.30
11240;BMP180;5677;48.488;13.436;2022-08-19T00:07:03;97133.00;;;24.20
11240;BMP180;5677;48.488;13.436;2022-08-19T00:09:33;97143.00;;;24.20
11240;BMP180;5677;48.488;13.436;2022-08-19T00:12:03;97144.00;;;24.20
11240;BMP180;5677;48.488;13.436;2022-08-19T00:14:32;97154.00;;;24.20
11240;BMP180;5677;48.488;13.436;2022-08-19T00:17:04;97166.00;;;24.20
11240;BMP180;5677;48.488;13.436;2022-08-19T00:19:33;97159.00;;;24.20
11240;BMP180;5677;48.488;13.436;2022-08-19T00:22:03;97163.00;;;24.20
11240;BMP180;5677;48.488;13.436;2022-08-19T00:24:32;97169.00;;;24.20
11240;BMP180;5677;48.488;13.436;2022-08-19T00:27:02;97164.00;;;24.20
11240;BMP180;5677;48.488;13.436;2022-08-19T00:29:31;97149.00;;;24.20
11240;BMP180;5677;48.488;13.436;2022-08-19T00:32:01;97153.00;;;24.20
11240;BMP180;5677;48.488;13.436;2022-08-19T00:34:30;97160.00;;;24.20
11240;BMP180;5677;48.488;13.436;2022-08-19T00:36:59;97155.00;;;24.20
11240;BMP180;5677;48.488;13.436;2022-08-19T00:39:28;97165.00;;;24.20
11240;BMP180;5677;48.488;13.436;2022-08-19T00:41:56;97173.00;;;24.20
11240;BMP180;5677;48.488;13.436;2022-08-19T00:44:28;97184.00;;;24.20
11240;BMP180;5677;48.488;13.436;2022-08-19T00:46:58;97182.00;;;24.20
11240;BMP180;5677;48.488;13.436;2022-08-19T00:49:34;97182.00;;;24.20
11240;BMP180;5677;48.488;13.436;2022-08-19T00:52:07;97181.00;;;24.20
11240;BMP180;5677;48.488;13.436;2022-08-19T00:54:38;97182.00;;;24.20
11240;BMP180;5677;48.488;13.436;2022-08-19T00:57:11;97178.00;;;24.20
11240;BMP180;5677;48.488;13.436;2022-08-19T00:59:45;97175.00;;;24.20
11240;BMP180;5677;48.488;13.436;2022-08-19T01:02:16;97183.00;;;24.20
11240;BMP180;5677;48.488;13.436;2022-08-19T01:04:46;97181.00;;;24.20
11240;BMP180;5677;48.488;13.436;2022-08-19T01:07:15;97187.00;;;24.10
11240;BMP180;5677;48.488;13.436;2022-08-19T01:09:44;97195.00;;;24.20
11240;BMP180;5677;48.488;13.436;2022-08-19T01:12:14;97199.00;;;24.20
11240;BMP180;5677;48.488;13.436;2022-08-19T01:14:42;97203.00;;;24.10
11240;BMP180;5677;48.488;13.436;2022-08-19T01:17:13;97207.00;;;24.10
11240;BMP180;5677;48.488;13.436;2022-08-19T01:19:47;97206.00;;;24.10
11240;BMP180;5677;48.488;13.436;2022-08-19T01:22:28;97203.00;;;24.10
11240;BMP180;5677;48.488;13.436;2022-08-19T01:24:58;97194.00;;;24.10
11240;BMP180;5677;48.488;13.436;2022-08-19T01:27:29;97188.00;;;24.10
11240;BMP180;5677;48.488;13.436;2022-08-19T01:30:06;97190.00;;;24.10
11240;BMP180;5677;48.488;13.436;2022-08-19T01:32:35;97189.00;;;24.10
11240;BMP180;5677;48.488;13.436;2022-08-19T01:35:06;97180.00;;;24.10
11240;BMP180;5677;48.488;13.436;2022-08-19T01:37:46;97178.00;;;24.10
11240;BMP180;5677;48.488;13.436;2022-08-19T01:40:16;97191.00;;;24.10
11240;BMP180;5677;48.488;13.436;2022-08-19T01:42:45;97195.00;;;24.10
11240;BMP180;5677;48.488;13.436;2022-08-19T01:45:16;97186.00;;;24.10
11240;BMP180;5677;48.488;13.436;2022-08-19T01:47:44;97190.00;;;24.10
11240;BMP180;5677;48.488;13.436;2022-08-19T01:50:14;97196.00;;;24.10
11240;BMP180;5677;48.488;13.436;2022-08-19T01:52:46;97201.00;;;24.10
11240;BMP180;5677;48.488;13.436;2022-08-19T01:55:20;97212.00;;;24.10
11240;BMP180;5677;48.488;13.436;2022-08-19T01:57:56;97215.00;;;24.10
11240;BMP180;5677;48.488;13.436;2022-08-19T02:00:29;97211.00;;;24.10
11240;BMP180;5677;48.488;13.436;2022-08-19T02:03:00;97208.00;;;24.10
11240;BMP180;5677;48.488;13.436;2022-08-19T02:05:29;97200.00;;;24.10
11240;BMP180;5677;48.488;13.436;2022-08-19T02:07:59;97189.00;;;24.10
11240;BMP180;5677;48.488;13.436;2022-08-19T02:10:28;97184.00;;;24.10
11240;BMP180;5677;48.488;13.436;2022-08-19T02:12:56;97181.00;;;24.10
11240;BMP180;5677;48.488;13.436;2022-08-19T02:15:24;97185.00;;;24.10
11240;BMP180;5677;48.488;13.436;2022-08-19T02:17:53;97187.00;;;24.10
11240;BMP180;5677;48.488;13.436;2022-08-19T02:20:21;97183.00;;;24.10
11240;BMP180;5677;48.488;13.436;2022-08-19T02:22:50;97173.00;;;24.10
11240;BMP180;5677;48.488;13.436;2022-08-19T02:25:20;97156.00;;;24.10
11240;BMP180;5677;48.488;13.436;2022-08-19T02:27:50;97158.00;;;24.10
11240;BMP180;5677;48.488;13.436;2022-08-19T02:30:19;97165.00;;;24.10
11240;BMP180;5677;48.488;13.436;2022-08-19T02:32:48;97167.00;;;24.10
11240;BMP180;5677;48.488;13.436;2022-08-19T02:35:17;97155.00;;;24.10
11240;BMP180;5677;48.488;13.436;2022-08-19T02:37:46;97157.00;;;24.10
11240;BMP180;5677;48.488;13.436;2022-08-19T02:40:34;97163.00;;;24.10
11240;BMP180;5677;48.488;13.436;2022-08-19T02:43:06;97176.00;;;24.10
11240;BMP180;5677;48.488;13.436;2022-08-19T02:45:37;97180.00;;;24.10
11240;BMP180;5677;48.488;13.436;2022-08-19T02:48:06;97193.00;;;24.10
11240;BMP180;5677;48.488;13.436;2022-08-19T02:50:39;97198.00;;;24.10
11240;BMP180;5677;48.488;13.436;2022-08-19T02:53:08;97210.00;;;24.10
11240;BMP180;5677;48.488;13.436;2022-08-19T02:55:44;97219.00;;;24.10
11240;BMP180;5677;48.488;13.436;2022-08-19T02:58:15;97217.00;;;24.10
11240;BMP180;5677;48.488;13.436;2022-08-19T03:00:46;97210.00;;;24.10
11240;BMP180;5677;48.488;13.436;2022-08-19T03:03:16;97204.00;;;24.10
11240;BMP180;5677;48.488;13.436;2022-08-19T03:05:45;97209.00;;;24.10
11240;BMP180;5677;48.488;13.436;2022-08-19T03:08:14;97200.00;;;24.10
11240;BMP180;5677;48.488;13.436;2022-08-19T03:10:47;97204.00;;;24.00
11240;BMP180;5677;48.488;13.436;2022-08-19T03:13:18;97200.00;;;24.00
11240;BMP180;5677;48.488;13.436;2022-08-19T03:15:49;97206.00;;;24.00
11240;BMP180;5677;48.488;13.436;2022-08-19T03:18:18;97200.00;;;24.00
11240;BMP180;5677;48.488;13.436;2022-08-19T03:20:49;97198.00;;;24.00
11240;BMP180;5677;48.488;13.436;2022-08-19T03:23:19;97197.00;;;24.00
11240;BMP180;5677;48.488;13.436;2022-08-19T03:25:52;97200.00;;;24.00
11240;BMP180;5677;48.488;13.436;2022-08-19T03:28:21;97210.00;;;24.00
11240;BMP180;5677;48.488;13.436;2022-08-19T03:30:58;97216.00;;;24.00
11240;BMP180;5677;48.488;13.436;2022-08-19T03:33:28;97203.00;;;24.00
11240;BMP180;5677;48.488;13.436;2022-08-19T03:36:09;97218.00;;;24.00
11240;BMP180;5677;48.488;13.436;2022-08-19T03:38:40;97226.00;;;24.00
11240;BMP180;5677;48.488;13.436;2022-08-19T03:41:14;97229.00;;;24.00
11240;BMP180;5677;48.488;13.436;2022-08-19T03:43:46;97237.00;;;24.00
11240;BMP180;5677;48.488;13.436;2022-08-19T03:46:19;97229.00;;;24.00
11240;BMP180;5677;48.488;13.436;2022-08-19T03:48:51;97234.00;;;24.00
11240;BMP180;5677;48.488;13.436;2022-08-19T03:51:28;97254.00;;;24.00
11240;BMP180;5677;48.488;13.436;2022-08-19T03:53:59;97261.00;;;24.00
11240;BMP180;5677;48.488;13.436;2022-08-19T03:56:30;97253.00;;;24.00
11240;BMP180;5677;48.488;13.436;2022-08-19T03:58:59;97239.00;;;24.00
11240;BMP180;5677;48.488;13.436;2022-08-19T04:01:29;97243.00;;;24.00
11240;BMP180;5677;48.488;13.436;2022-08-19T04:03:59;97271.00;;;24.00
11240;BMP180;5677;48.488;13.436;2022-08-19T04:06:30;97274.00;;;24.00
11240;BMP180;5677;48.488;13.436;2022-08-19T04:09:01;97283.00;;;24.00
11240;BMP180;5677;48.488;13.436;2022-08-19T04:11:35;97288.00;;;24.00
11240;BMP180;5677;48.488;13.436;2022-08-19T04:14:10;97292.00;;;24.00
11240;BMP180;5677;48.488;13.436;2022-08-19T04:16:40;97300.00;;;24.00
11240;BMP180;5677;48.488;13.436;2022-08-19T04:19:11;97303.00;;;24.00
11240;BMP180;5677;48.488;13.436;2022-08-19T04:21:40;97298.00;;;24.00
11240;BMP180;5677;48.488;13.436;2022-08-19T04:24:12;97295.00;;;24.00
11240;BMP180;5677;48.488;13.436;2022-08-19T04:26:43;97307.00;;;24.00
11240;BMP180;5677;48.488;13.436;2022-08-19T04:29:15;97313.00;;;24.00
11240;BMP180;5677;48.488;13.436;2022-08-19T04:31:45;97318.00;;;24.00
11240;BMP180;5677;48.488;13.436;2022-08-19T04:34:17;97327.00;;;24.00
11240;BMP180;5677;48.488;13.436;2022-08-19T04:36:49;97328.00;;;24.00
11240;BMP180;5677;48.488;13.436;2022-08-19T04:39:24;97338.00;;;24.00
11240;BMP180;5677;48.488;13.436;2022-08-19T04:42:15;97336.00;;;24.00
11240;BMP180;5677;48.488;13.436;2022-08-19T04:45:01;97341.00;;;24.00
11240;BMP180;5677;48.488;13.436;2022-08-19T04:47:30;97345.00;;;24.00
11240;BMP180;5677;48.488;13.436;2022-08-19T04:49:59;97341.00;;;24.00
11240;BMP180;5677;48.488;13.436;2022-08-19T04:52:27;97341.00;;;24.00
11240;BMP180;5677;48.488;13.436;2022-08-19T04:54:58;97348.00;;;24.00
11240;BMP180;5677;48.488;13.436;2022-08-19T04:57:28;97350.00;;;24.00
11240;BMP180;5677;48.488;13.436;2022-08-19T04:59:58;97353.00;;;24.00
11240;BMP180;5677;48.488;13.436;2022-08-19T05:02:26;97353.00;;;24.00
11240;BMP180;5677;48.488;13.436;2022-08-19T05:04:59;97350.00;;;24.00
11240;BMP180;5677;48.488;13.436;2022-08-19T05:07:28;97353.00;;;24.00
11240;BMP180;5677;48.488;13.436;2022-08-19T05:09:57;97356.00;;;24.00
11240;BMP180;5677;48.488;13.436;2022-08-19T05:12:28;97347.00;;;24.00
11240;BMP180;5677;48.488;13.436;2022-08-19T05:14:57;97344.00;;;24.00
11240;BMP180;5677;48.488;13.436;2022-08-19T05:17:28;97344.00;;;24.00
11240;BMP180;5677;48.488;13.436;2022-08-19T05:19:56;97346.00;;;24.00
11240;BMP180;5677;48.488;13.436;2022-08-19T05:22:44;97333.00;;;24.00
11240;BMP180;5677;48.488;13.436;2022-08-19T05:25:21;97321.00;;;24.00
11240;BMP180;5677;48.488;13.436;2022-08-19T05:27:52;97307.00;;;24.00
11240;BMP180;5677;48.488;13.436;2022-08-19T05:30:20;97297.00;;;23.90
11240;BMP180;5677;48.488;13.436;2022-08-19T05:32:49;97291.00;;;24.00
11240;BMP180;5677;48.488;13.436;2022-08-19T05:35:18;97276.00;;;23.90
11240;BMP180;5677;48.488;13.436;2022-08-19T05:37:46;97273.00;;;24.00
11240;BMP180;5677;48.488;13.436;2022-08-19T05:40:15;97252.00;;;23.90
11240;BMP180;5677;48.488;13.436;2022-08-19T05:42:43;97235.00;;;23.90
11240;BMP180;5677;48.488;13.436;2022-08-19T05:45:14;97237.00;;;23.90
11240;BMP180;5677;48.488;13.436;2022-08-19T05:47:43;97238.00;;;23.90
11240;BMP180;5677;48.488;13.436;2022-08-19T05:50:12;97231.00;;;23.90
11240;BMP180;5677;48.488;13.436;2022-08-19T05:52:40;97219.00;;;23.90
11240;BMP180;5677;48.488;13.436;2022-08-19T05:55:10;97198.00;;;23.90
11240;BMP180;5677;48.488;13.436;2022-08-19T05:57:38;97206.00;;;23.90
11240;BMP180;5677;48.488;13.436;2022-08-19T06:00:09;97209.00;;;23.90
11240;BMP180;5677;48.488;13.436;2022-08-19T06:02:40;97227.00;;;23.90
11240;BMP180;5677;48.488;13.436;2022-08-19T06:05:11;97221.00;;;23.90
11240;BMP180;5677;48.488;13.436;2022-08-19T06:07:40;97211.00;;;23.90
11240;BMP180;5677;48.488;13.436;2022-08-19T06:10:11;97200.00;;;23.90
11240;BMP180;5677;48.488;13.436;2022-08-19T06:12:40;97212.00;;;23.90
11240;BMP180;5677;48.488;13.436;2022-08-19T06:15:12;97224.00;;;23.90
11240;BMP180;5677;48.488;13.436;2022-08-19T06:17:43;97224.00;;;23.90
11240;BMP180;5677;48.488;13.436;2022-08-19T06:20:14;97218.00;;;23.90
11240;BMP180;5677;48.488;13.436;2022-08-19T06:22:47;97237.00;;;23.90
11240;BMP180;5677;48.488;13.436;2022-08-19T06:25:19;97243.00;;;23.90
11240;BMP180;5677;48.488;13.436;2022-08-19T06:27:47;97260.00;;;23.80
11240;BMP180;5677;48.488;13.436;2022-08-19T06:30:17;97256.00;;;23.80
11240;BMP180;5677;48.488;13.436;2022-08-19T06:32:47;97247.00;;;23.80
11240;BMP180;5677;48.488;13.436;2022-08-19T06:35:18;97257.00;;;23.70
11240;BMP180;5677;48.488;13.436;2022-08-19T06:37:46;97249.00;;;23.70
11240;BMP180;5677;48.488;13.436;2022-08-19T06:40:15;97255.00;;;23.70
11240;BMP180;5677;48.488;13.436;2022-08-19T06:42:44;97248.00;;;23.70
11240;BMP180;5677;48.488;13.436;2022-08-19T06:45:13;97246.00;;;23.70
11240;BMP180;5677;48.488;13.436;2022-08-19T06:47:41;97243.00;;;23.80
11240;BMP180;5677;48.488;13.436;2022-08-19T06:50:14;97246.00;;;23.80
11240;BMP180;5677;48.488;13.436;2022-08-19T06:52:43;97244.00;;;23.80
11240;BMP180;5677;48.488;13.436;2022-08-19T06:55:11;97248.00;;;23.80
11240;BMP180;5677;48.488;13.436;2022-08-19T06:57:40;97243.00;;;23.80
11240;BMP180;5677;48.488;13.436;2022-08-19T07:00:11;97253.00;;;23.80
11240;BMP180;5677;48.488;13.436;2022-08-19T07:02:40;97254.00;;;23.80
11240;BMP180;5677;48.488;13.436;2022-08-19T07:05:10;97269.00;;;23.80
11240;BMP180;5677;48.488;13.436;2022-08-19T07:07:40;97271.00;;;23.80
11240;BMP180;5677;48.488;13.436;2022-08-19T07:10:11;97262.00;;;23.80
11240;BMP180;5677;48.488;13.436;2022-08-19T07:12:39;97270.00;;;23.80
11240;BMP180;5677;48.488;13.436;2022-08-19T07:15:09;97279.00;;;23.80
11240;BMP180;5677;48.488;13.436;2022-08-19T07:17:38;97289.00;;;23.80
11240;BMP180;5677;48.488;13.436;2022-08-19T07:20:09;97288.00;;;23.90
11240;BMP180;5677;48.488;13.436;2022-08-19T07:22:40;97291.00;;;23.90
11240;BMP180;5677;48.488;13.436;2022-08-19T07:25:09;97305.00;;;23.90
11240;BMP180;5677;48.488;13.436;2022-08-19T07:27:40;97308.00;;;23.90
11240;BMP180;5677;48.488;13.436;2022-08-19T07:30:10;97303.00;;;23.90
11240;BMP180;5677;48.488;13.436;2022-08-19T07:32:38;97301.00;;;23.90
11240;BMP180;5677;48.488;13.436;2022-08-19T07:35:08;97299.00;;;23.90
11240;BMP180;5677;48.488;13.436;2022-08-19T07:37:38;97293.00;;;23.90
11240;BMP180;5677;48.488;13.436;2022-08-19T07:40:11;97295.00;;;23.90
11240;BMP180;5677;48.488;13.436;2022-08-19T07:42:40;97301.00;;;23.90
11240;BMP180;5677;48.488;13.436;2022-08-19T07:45:10;97302.00;;;23.90
11240;BMP180;5677;48.488;13.436;2022-08-19T07:47:39;97290.00;;;23.90
11240;BMP180;5677;48.488;13.436;2022-08-19T07:50:10;97284.00;;;23.90
11240;BMP180;5677;48.488;13.436;2022-08-19T07:52:41;97284.00;;;23.90
11240;BMP180;5677;48.488;13.436;2022-08-19T07:55:11;97280.00;;;23.90
11240;BMP180;5677;48.488;13.436;2022-08-19T07:57:40;97270.00;;;23.90
11240;BMP180;5677;48.488;13.436;2022-08-19T08:00:10;97263.00;;;23.90
11240;BMP180;5677;48.488;13.436;2022-08-19T08:02:38;97249.00;;;23.90
11240;BMP180;5677;48.488;13.436;2022-08-19T08:05:10;97248.00;;;23.90
11240;BMP180;5677;48.488;13.436;2022-08-19T08:07:57;97238.00;;;24.00
11240;BMP180;5677;48.488;13.436;2022-08-19T08:10:43;97228.00;;;24.00
11240;BMP180;5677;48.488;13.436;2022-08-19T08:13:11;97239.00;;;24.00
11240;BMP180;5677;48.488;13.436;2022-08-19T08:15:40;97236.00;;;24.00
11240;BMP180;5677;48.488;13.436;2022-08-19T08:18:11;97243.00;;;24.00
11240;BMP180;5677;48.488;13.436;2022-08-19T08:20:40;97233.00;;;24.00
11240;BMP180;5677;48.488;13.436;2022-08-19T08:23:10;97238.00;;;24.00
11240;BMP180;5677;48.488;13.436;2022-08-19T08:25:53;97234.00;;;24.00
11240;BMP180;5677;48.488;13.436;2022-08-19T08:28:23;97243.00;;;24.00
11240;BMP180;5677;48.488;13.436;2022-08-19T08:30:52;97240.00;;;24.00
11240;BMP180;5677;48.488;13.436;2022-08-19T08:33:23;97244.00;;;24.00
11240;BMP180;5677;48.488;13.436;2022-08-19T08:35:51;97241.00;;;24.00
11240;BMP180;5677;48.488;13.436;2022-08-19T08:38:23;97242.00;;;24.00
11240;BMP180;5677;48.488;13.436;2022-08-19T08:40:56;97241.00;;;24.00
11240;BMP180;5677;48.488;13.436;2022-08-19T08:43:35;97253.00;;;24.00
11240;BMP180;5677;48.488;13.436;2022-08-19T08:46:09;97258.00;;;24.00
11240;BMP180;5677;48.488;13.436;2022-08-19T08:48:46;97261.00;;;24.00
11240;BMP180;5677;48.488;13.436;2022-08-19T08:51:23;97261.00;;;24.00
11240;BMP180;5677;48.488;13.436;2022-08-19T08:53:56;97261.00;;;24.00
11240;BMP180;5677;48.488;13.436;2022-08-19T08:56:25;97257.00;;;24.00
11240;BMP180;5677;48.488;13.436;2022-08-19T08:59:01;97252.00;;;24.00
11240;BMP180;5677;48.488;13.436;2022-08-19T09:01:33;97248.00;;;24.00
11240;BMP180;5677;48.488;13.436;2022-08-19T09:04:06;97262.00;;;24.00
11240;BMP180;5677;48.488;13.436;2022-08-19T09:06:53;97261.00;;;24.00
11240;BMP180;5677;48.488;13.436;2022-08-19T09:09:32;97269.00;;;24.00
11240;BMP180;5677;48.488;13.436;2022-08-19T09:12:10;97277.00;;;24.00
11240;BMP180;5677;48.488;13.436;2022-08-19T09:14:50;97281.00;;;24.00
11240;BMP180;5677;48.488;13.436;2022-08-19T09:17:22;97284.00;;;24.00
11240;BMP180;5677;48.488;13.436;2022-08-19T09:20:05;97292.00;;;24.00
11240;BMP180;5677;48.488;13.436;2022-08-19T09:22:36;97292.00;;;24.00
11240;BMP180;5677;48.488;13.436;2022-08-19T09:25:11;97289.00;;;24.00
11240;BMP180;5677;48.488;13.436;2022-08-19T09:27:41;97287.00;;;24.00
11240;BMP180;5677;48.488;13.436;2022-08-19T09:30:16;97268.00;;;24.00
11240;BMP180;5677;48.488;13.436;2022-08-19T09:32:45;97280.00;;;24.00
11240;BMP180;5677;48.488;13.436;2022-08-19T09:35:15;97266.00;;;24.00
11240;BMP180;5677;48.488;13.436;2022-08-19T09:37:43;97274.00;;;24.00
11240;BMP180;5677;48.488;13.436;2022-08-19T09:40:14;97270.00;;;24.10
11240;BMP180;5677;48.488;13.436;2022-08-19T09:42:43;97282.00;;;24.10
11240;BMP180;5677;48.488;13.436;2022-08-19T09:45:14;97284.00;;;24.10
11240;BMP180;5677;48.488;13.436;2022-08-19T09:47:44;97282.00;;;24.10
11240;BMP180;5677;48.488;13.436;2022-08-19T09:50:13;97280.00;;;24.10
11240;BMP180;5677;48.488;13.436;2022-08-19T09:52:41;97261.00;;;24.10
11240;BMP180;5677;48.488;13.436;2022-08-19T09:55:13;97260.00;;;24.10
11240;BMP180;5677;48.488;13.436;2022-08-19T09:57:42;97254.00;;;24.10
11240;BMP180;5677;48.488;13.436;2022-08-19T10:00:12;97241.00;;;24.10
11240;BMP180;5677;48.488;13.436;2022-08-19T10:02:40;97256.00;;;24.10
11240;BMP180;5677;48.488;13.436;2022-08-19T10:05:09;97257.00;;;24.10
11240;BMP180;5677;48.488;13.436;2022-08-19T10:07:55;97269.00;;;24.10
11240;BMP180;5677;48.488;13.436;2022-08-19T10:10:25;97267.00;;;24.10
11240;BMP180;5677;48.488;13.436;2022-08-19T10:12:53;97265.00;;;24.10
11240;BMP180;5677;48.488;13.436;2022-08-19T10:15:22;97262.00;;;24.10
11240;BMP180;5677;48.488;13.436;2022-08-19T10:17:51;97274.00;;;24.20
11240;BMP180;5677;48.488;13.436;2022-08-19T10:20:20;97280.00;;;24.20
11240;BMP180;5677;48.488;13.436;2022-08-19T10:22:51;97277.00;;;24.20
11240;BMP180;5677;48.488;13.436;2022-08-19T10:25:19;97284.00;;;24.20
11240;BMP180;5677;48.488;13.436;2022-08-19T10:27:50;97278.00;;;24.20
11240;BMP180;5677;48.488;13.436;2022-08-19T10:30:19;97271.00;;;24.20
11240;BMP180;5677;48.488;13.436;2022-08-19T10:32:48;97274.00;;;24.20
11240;BMP180;5677;48.488;13.436;2022-08-19T10:35:17;97272.00;;;24.20
11240;BMP180;5677;48.488;13.436;2022-08-19T10:37:47;97270.00;;;24.20
11240;BMP180;5677;48.488;13.436;2022-08-19T10:40:17;97261.00;;;24.20
11240;BMP180;5677;48.488;13.436;2022-08-19T10:42:45;97244.00;;;24.20
11240;BMP180;5677;48.488;13.436;2022-08-19T10:45:16;97236.00;;;24.20
11240;BMP180;5677;48.488;13.436;2022-08-19T10:47:44;97233.00;;;24.20
11240;BMP180;5677;48.488;13.436;2022-08-19T10:50:13;97229.00;;;24.20
11240;BMP180;5677;48.488;13.436;2022-08-19T10:53:05;97223.00;;;24.20
11240;BMP180;5677;48.488;13.436;2022-08-19T10:55:36;97221.00;;;24.20
11240;BMP180;5677;48.488;13.436;2022-08-19T10:58:22;97205.00;;;24.20
11240;BMP180;5677;48.488;13.436;2022-08-19T11:00:56;97208.00;;;24.20
11240;BMP180;5677;48.488;13.436;2022-08-19T11:03:26;97209.00;;;24.30
11240;BMP180;5677;48.488;13.436;2022-08-19T11:06:01;97204.00;;;24.30
11240;BMP180;5677;48.488;13.436;2022-08-19T11:08:30;97193.00;;;24.30
11240;BMP180;5677;48.488;13.436;2022-08-19T11:11:01;97198.00;;;24.30
11240;BMP180;5677;48.488;13.436;2022-08-19T11:13:32;97191.00;;;24.30
11240;BMP180;5677;48.488;13.436;2022-08-19T11:16:09;97180.00;;;24.30
11240;BMP180;5677;48.488;13.436;2022-08-19T11:18:42;97182.00;;;24.30
11240;BMP180;5677;48.488;13.436;2022-08-19T11:21:15;97192.00;;;24.30
11240;BMP180;5677;48.488;13.436;2022-08-19T11:23:47;97186.00;;;24.30
11240;BMP180;5677;48.488;13.436;2022-08-19T11:26:18;97179.00;;;24.30
11240;BMP180;5677;48.488;13.436;2022-08-19T11:28:48;97182.00;;;24.30
11240;BMP180;5677;48.488;13.436;2022-08-19T11:31:24;97179.00;;;24.30
11240;BMP180;5677;48.488;13.436;2022-08-19T11:33:56;97172.00;;;24.40
11240;BMP180;5677;48.488;13.436;2022-08-19T11:36:25;97171.00;;;24.40
11240;BMP180;5677;48.488;13.436;2022-08-19T11:38:55;97176.00;;;24.40
11240;BMP180;5677;48.488;13.436;2022-08-19T11:41:25;97187.00;;;24.40
11240;BMP180;5677;48.488;13.436;2022-08-19T11:43:54;97179.00;;;24.40
11240;BMP180;5677;48.488;13.436;2022-08-19T11:46:26;97159.00;;;24.40
11240;BMP180;5677;48.488;13.436;2022-08-19T11:48:56;97167.00;;;24.40
11240;BMP180;5677;48.488;13.436;2022-08-19T11:51:26;97190.00;;;24.40
11240;BMP180;5677;48.488;13.436;2022-08-19T11:53:58;97197.00;;;24.40
11240;BMP180;5677;48.488;13.436;2022-08-19T11:56:28;97192.00;;;24.50
11240;BMP180;5677;48.488;13.436;2022-08-19T11:58:57;97199.00;;;24.50
11240;BMP180;5677;48.488;13.436;2022-08-19T12:01:28;97190.00;;;24.50
11240;BMP180;5677;48.488;13.436;2022-08-19T12:03:58;97183.00;;;24.50
11240;BMP180;5677;48.488;13.436;2022-08-19T12:06:30;97193.00;;;24.50
11240;BMP180;5677;48.488;13.436;2022-08-19T12:09:05;97192.00;;;24.50
11240;BMP180;5677;48.488;13.436;2022-08-19T12:11:35;97192.00;;;24.50
11240;BMP180;5677;48.488;13.436;2022-08-19T12:14:06;97189.00;;;24.50
11240;BMP180;5677;48.488;13.436;2022-08-19T12:16:36;97178.00;;;24.50
11240;BMP180;5677;48.488;13.436;2022-08-19T12:19:06;97179.00;;;24.50
11240;BMP180;5677;48.488;13.436;2022-08-19T12:21:35;97177.00;;;24.50
11240;BMP180;5677;48.488;13.436;2022-08-19T12:24:07;97167.00;;;24.50
11240;BMP180;5677;48.488;13.436;2022-08-19T12:26:36;97167.00;;;24.50
11240;BMP180;5677;48.488;13.436;2022-08-19T12:29:05;97164.00;;;24.50
11240;BMP180;5677;48.488;13.436;2022-08-19T12:31:36;97156.00;;;24.60
11240;BMP180;5677;48.488;13.436;2022-08-19T12:34:05;97159.00;;;24.50
11240;BMP180;5677;48.488;13.436;2022-08-19T12:36:35;97162.00;;;24.60
11240;BMP180;5677;48.488;13.436;2022-08-19T12:39:04;97171.00;;;24.60
11240;BMP180;5677;48.488;13.436;2022-08-19T12:41:37;97180.00;;;24.60
11240;BMP180;5677;48.488;13.436;2022-08-19T12:44:06;97182.00;;;24.60
11240;BMP180;5677;48.488;13.436;2022-08-19T12:46:36;97187.00;;;24.60
11240;BMP180;5677;48.488;13.436;2022-08-19T12:49:05;97190.00;;;24.60
11240;BMP180;5677;48.488;13.436;2022-08-19T12:51:33;97183.00;;;24.50
11240;BMP180;5677;48.488;13.436;2022-08-19T12:54:04;97174.00;;;24.60
11240;BMP180;5677;48.488;13.436;2022-08-19T12:56:32;97172.00;;;24.60
11240;BMP180;5677;48.488;13.436;2022-08-19T12:59:03;97164.00;;;24.60
11240;BMP180;5677;48.488;13.436;2022-08-19T13:01:32;97165.00;;;24.60
11240;BMP180;5677;48.488;13.436;2022-08-19T13:04:04;97167.00;;;24.60
11240;BMP180;5677;48.488;13.436;2022-08-19T13:06:32;97168.00;;;24.60
11240;BMP180;5677;48.488;13.436;2022-08-19T13:09:01;97175.00;;;24.60
11240;BMP180;5677;48.488;13.436;2022-08-19T13:11:30;97181.00;;;24.60
11240;BMP180;5677;48.488;13.436;2022-08-19T13:14:01;97189.00;;;24.60
11240;BMP180;5677;48.488;13.436;2022-08-19T13:16:31;97188.00;;;24.60
11240;BMP180;5677;48.488;13.436;2022-08-19T13:19:02;97192.00;;;24.60
11240;BMP180;5677;48.488;13.436;2022-08-19T13:21:32;97185.00;;;24.60
11240;BMP180;5677;48.488;13.436;2022-08-19T13:24:01;97184.00;;;24.60
11240;BMP180;5677;48.488;13.436;2022-08-19T13:26:29;97186.00;;;24.60
11240;BMP180;5677;48.488;13.436;2022-08-19T13:28:59;97183.00;;;24.60
11240;BMP180;5677;48.488;13.436;2022-08-19T13:31:45;97181.00;;;24.60
11240;BMP180;5677;48.488;13.436;2022-08-19T13:34:34;97174.00;;;24.70
11240;BMP180;5677;48.488;13.436;2022-08-19T13:37:05;97173.00;;;24.70
11240;BMP180;5677;48.488;13.436;2022-08-19T13:39:35;97177.00;;;24.70
11240;BMP180;5677;48.488;13.436;2022-08-19T13:42:05;97176.00;;;24.70
11240;BMP180;5677;48.488;13.436;2022-08-19T13:44:37;97171.00;;;24.70
11240;BMP180;5677;48.488;13.436;2022-08-19T13:47:07;97166.00;;;24.70
11240;BMP180;5677;48.488;13.436;2022-08-19T13:49:40;97158.00;;;24.70
11240;BMP180;5677;48.488;13.436;2022-08-19T13:52:09;97150.00;;;24.70
11240;BMP180;5677;48.488;13.436;2022-08-19T13:54:39;97148.00;;;24.70
11240;BMP180;5677;48.488;13.436;2022-08-19T13:57:08;97146.00;;;24.70
11240;BMP180;5677;48.488;13.436;2022-08-19T13:59:36;97145.00;;;24.70
11240;BMP180;5677;48.488;13.436;2022-08-19T14:02:05;97137.00;;;24.70
11240;BMP180;5677;48.488;13.436;2022-08-19T14:04:34;97127.00;;;24.70
11240;BMP180;5677;48.488;13.436;2022-08-19T14:07:05;97120.00;;;24.70
11240;BMP180;5677;48.488;13.436;2022-08-19T14:09:34;97117.00;;;24.70
11240;BMP180;5677;48.488;13.436;2022-08-19T14:12:03;97113.00;;;24.80
11240;BMP180;5677;48.488;13.436;2022-08-19T14:14:32;97106.00;;;24.80
11240;BMP180;5677;48.488;13.436;2022-08-19T14:17:00;97108.00;;;24.80
11240;BMP180;5677;48.488;13.436;2022-08-19T14:19:29;97104.00;;;24.80
11240;BMP180;5677;48.488;13.436;2022-08-19T14:21:58;97099.00;;;24.80
11240;BMP180;5677;48.488;13.436;2022-08-19T14:24:28;97101.00;;;24.80
11240;BMP180;5677;48.488;13.436;2022-08-19T14:26:59;97101.00;;;24.80
11240;BMP180;5677;48.488;13.436;2022-08-19T14:29:27;97103.00;;;24.80
11240;BMP180;5677;48.488;13.436;2022-08-19T14:31:57;97100.00;;;24.80